< Typhoon 197110 1971 Season Typhoon 197112 >
Typhoon 197111 (GILDA)
General InformationTrack Information on Google Maps || Disaster Info.ResourceGoogle EarthGE AnimationAtom FeedGeoJSON
Detalied Best Track (Time Zone = UTC)
Year Month Day Hour Lat. Long. Pressure (hPa) Wind (kt) Class Image Chart
1971 6 22 00 9.0 136.0 1008 0 2 -- Chart
1971 6 22 06 9.0 135.6 1006 0 2 -- Chart
1971 6 22 12 9.0 135.3 1006 0 2 -- Chart
1971 6 22 18 9.1 134.9 1006 0 2 -- Chart
1971 6 23 00 9.2 134.5 1006 0 2 -- Chart
1971 6 23 06 9.2 133.6 1005 0 2 -- Chart
1971 6 23 12 9.2 132.7 1004 0 2 -- Chart
1971 6 23 18 9.3 131.7 1002 0 2 -- Chart
1971 6 24 00 9.3 130.9 1000 0 2 -- Chart
1971 6 24 06 9.8 129.2 995 0 2 -- Chart
1971 6 24 12 10.9 127.6 985 0 9 -- Chart
1971 6 24 18 11.3 126.5 985 0 9 -- Chart
1971 6 25 00 11.7 125.8 985 0 9 -- Chart
1971 6 25 06 12.3 123.2 990 0 9 -- Chart
1971 6 25 12 12.8 121.8 990 0 9 -- Chart
1971 6 25 18 13.6 120.8 990 0 9 -- Chart
1971 6 26 00 14.5 119.4 975 0 9 -- Chart
1971 6 26 06 15.6 117.8 975 0 9 -- Chart
1971 6 26 12 16.3 116.2 985 0 9 -- Chart
1971 6 26 18 17.0 114.8 980 0 9 -- Chart
1971 6 27 00 17.5 113.3 975 0 9 -- Chart
1971 6 27 06 18.3 112.3 975 0 9 -- Chart
1971 6 27 12 19.3 111.0 975 0 9 -- Chart
1971 6 27 18 20.0 110.4 980 0 9 -- Chart
1971 6 28 00 20.4 110.0 985 0 9 -- Chart
1971 6 28 06 21.6 109.6 985 0 9 -- Chart
1971 6 28 12 23.0 109.0 990 0 9 -- Chart
1971 6 28 18 25.0 108.3 996 0 2 -- Chart
1971 6 29 00 27.1 107.8 1000 0 6 -- Chart
Japan Meteorological Agency Best Track Data | Correction Date : 1989-06-01
< Typhoon 197110 1971 Season Typhoon 197112 >

Help